createdAt,value
2023-05-02T00:00:40.655Z,14.5
2023-05-02T00:01:41.682Z,14.5
2023-05-02T00:02:42.833Z,14.5
2023-05-02T00:03:43.731Z,14.4
2023-05-02T00:04:44.740Z,14.4
2023-05-02T00:05:45.677Z,14.4
2023-05-02T00:06:46.799Z,14.4
2023-05-02T00:07:47.655Z,14.4
2023-05-02T00:08:48.679Z,14.4
2023-05-02T00:09:50.560Z,14.4
2023-05-02T00:10:51.658Z,14.4
2023-05-02T00:11:52.795Z,14.5
2023-05-02T00:12:54.704Z,14.5
2023-05-02T00:13:55.636Z,14.5
2023-05-02T00:14:56.695Z,14.5
2023-05-02T00:15:57.617Z,14.5
2023-05-02T00:16:58.727Z,14.5
2023-05-02T00:17:59.716Z,14.5
2023-05-02T00:19:00.682Z,14.5
2023-05-02T00:20:01.902Z,14.5
2023-05-02T00:21:02.654Z,14.5
2023-05-02T00:22:03.740Z,14.5
2023-05-02T00:23:04.653Z,14.4
2023-05-02T00:24:05.681Z,14.4
2023-05-02T00:25:06.671Z,14.5
2023-05-02T00:26:07.676Z,14.5
2023-05-02T00:27:08.734Z,14.6
2023-05-02T00:28:09.636Z,14.6
2023-05-02T00:29:11.098Z,14.7
2023-05-02T00:30:12.998Z,14.7
2023-05-02T00:31:14.794Z,14.7
2023-05-02T00:32:15.707Z,14.6
2023-05-02T00:33:16.656Z,14.6
2023-05-02T00:34:17.681Z,14.6
2023-05-02T00:35:18.762Z,14.6
2023-05-02T00:36:19.680Z,14.6
2023-05-02T00:37:20.695Z,14.5
2023-05-02T00:38:21.696Z,14.5
2023-05-02T00:39:22.720Z,14.5
2023-05-02T00:40:23.656Z,14.5
2023-05-02T00:41:24.683Z,14.5
2023-05-02T00:42:25.696Z,14.4
2023-05-02T00:43:26.677Z,14.5
2023-05-02T00:44:27.679Z,14.3
2023-05-02T00:45:28.754Z,14.3
2023-05-02T00:46:29.739Z,14.2
2023-05-02T00:47:30.704Z,14.3
2023-05-02T00:48:31.705Z,14.3
2023-05-02T00:49:32.704Z,14.3
2023-05-02T00:50:33.681Z,14.3
2023-05-02T00:51:34.839Z,14.4
2023-05-02T00:52:35.679Z,14.4
2023-05-02T00:53:36.855Z,14.4
2023-05-02T00:54:37.702Z,14.4
2023-05-02T00:55:38.817Z,14.3
2023-05-02T00:56:39.736Z,14.4
2023-05-02T00:57:40.674Z,14.4
2023-05-02T00:58:41.697Z,14.4
2023-05-02T00:59:42.697Z,14.4
2023-05-02T01:00:43.676Z,14.3
2023-05-02T01:01:44.779Z,14.3
2023-05-02T01:02:45.697Z,14.2
2023-05-02T01:03:46.782Z,14
2023-05-02T01:04:47.715Z,14
2023-05-02T01:05:48.737Z,14.1
2023-05-02T01:06:49.750Z,14.1
2023-05-02T01:07:50.699Z,14.1
2023-05-02T01:08:51.753Z,14.1
2023-05-02T01:09:52.718Z,14.1
2023-05-02T01:10:53.713Z,14.1
2023-05-02T01:11:54.672Z,14.1
2023-05-02T01:12:55.697Z,14.2
2023-05-02T01:13:57.294Z,14.1
2023-05-02T01:14:58.752Z,14.1
2023-05-02T01:15:59.845Z,14.2
2023-05-02T01:17:00.714Z,14.2
2023-05-02T01:18:01.711Z,14.3
2023-05-02T01:19:02.812Z,14.3
2023-05-02T01:20:03.786Z,14.3
2023-05-02T01:21:04.678Z,14.4
2023-05-02T01:22:05.692Z,14.4
2023-05-02T01:23:06.713Z,14.4
2023-05-02T01:24:07.730Z,14.4
2023-05-02T01:25:08.838Z,14.4
2023-05-02T01:26:09.679Z,14.3
2023-05-02T01:27:10.692Z,14.3
2023-05-02T01:28:11.694Z,14.3
2023-05-02T01:29:12.691Z,14.2
2023-05-02T01:30:13.751Z,14.2
2023-05-02T01:31:14.787Z,14.3
2023-05-02T01:32:15.690Z,14.3
2023-05-02T01:33:16.715Z,14.2
2023-05-02T01:34:17.711Z,14.2
2023-05-02T01:35:18.724Z,14.3
2023-05-02T01:36:19.794Z,14.3
2023-05-02T01:37:20.716Z,14.2
2023-05-02T01:38:21.737Z,14.2
2023-05-02T01:39:22.756Z,14.2
2023-05-02T01:40:23.749Z,14.2
2023-05-02T01:41:24.773Z,14.2
2023-05-02T01:42:25.724Z,14.2
2023-05-02T01:43:26.696Z,14.2
2023-05-02T01:44:27.703Z,14.2
2023-05-02T01:45:28.715Z,14.3
2023-05-02T01:46:29.766Z,14.2
2023-05-02T01:47:30.752Z,14.2
2023-05-02T01:48:31.736Z,14.2
2023-05-02T01:49:32.698Z,14.2
2023-05-02T01:50:33.670Z,14.2
2023-05-02T01:51:34.912Z,14.2
2023-05-02T01:52:35.703Z,14.1
2023-05-02T01:53:36.758Z,14
2023-05-02T01:54:37.716Z,14
2023-05-02T01:55:38.742Z,13.9
2023-05-02T01:56:39.701Z,14
2023-05-02T01:57:40.722Z,14
2023-05-02T01:58:41.734Z,14
2023-05-02T01:59:42.736Z,14.1
2023-05-02T02:00:43.734Z,14.1
2023-05-02T02:01:44.825Z,14.1
2023-05-02T02:02:45.719Z,14.1
2023-05-02T02:03:46.759Z,14.1
2023-05-02T02:04:47.839Z,14.1
2023-05-02T02:05:48.784Z,14.1
2023-05-02T02:06:49.798Z,14.1
2023-05-02T02:07:50.723Z,14.1
2023-05-02T02:08:51.778Z,14.1
2023-05-02T02:09:52.720Z,14
2023-05-02T02:10:53.741Z,14
2023-05-02T02:11:54.817Z,13.9
2023-05-02T02:12:55.737Z,13.8
2023-05-02T02:13:56.735Z,13.7
2023-05-02T02:14:57.723Z,13.7
2023-05-02T02:15:58.815Z,13.7
2023-05-02T02:16:59.781Z,13.6
2023-05-02T02:18:00.753Z,13.4
2023-05-02T02:19:01.796Z,13.4
2023-05-02T02:20:02.850Z,13.3
2023-05-02T02:21:03.745Z,13.4
2023-05-02T02:22:04.755Z,13.2
2023-05-02T02:23:05.755Z,13.1
2023-05-02T02:24:06.756Z,13.1
2023-05-02T02:25:07.776Z,13.1
2023-05-02T02:26:08.769Z,13.1
2023-05-02T02:27:09.755Z,13.1
2023-05-02T02:28:10.737Z,13.2
2023-05-02T02:29:11.739Z,13.2
2023-05-02T02:30:12.801Z,13.2
2023-05-02T02:31:13.764Z,13.2
2023-05-02T02:32:14.735Z,13.2
2023-05-02T02:33:15.754Z,13.1
2023-05-02T02:34:16.735Z,13.1
2023-05-02T02:35:18.289Z,13.1
2023-05-02T02:36:19.755Z,13.1
2023-05-02T02:37:20.721Z,13.1
2023-05-02T02:38:21.737Z,13.2
2023-05-02T02:39:22.734Z,13.2
2023-05-02T02:40:23.779Z,13.1
2023-05-02T02:41:24.768Z,13
2023-05-02T02:42:25.817Z,13
2023-05-02T02:43:26.795Z,13
2023-05-02T02:44:27.754Z,13
2023-05-02T02:45:28.775Z,13
2023-05-02T02:46:29.765Z,13
2023-05-02T02:47:30.899Z,13.1
2023-05-02T02:48:31.738Z,13
2023-05-02T02:49:32.750Z,12.9
2023-05-02T02:50:33.707Z,12.9
2023-05-02T02:51:34.773Z,12.9
2023-05-02T02:52:35.735Z,12.8
2023-05-02T02:53:36.735Z,12.7
2023-05-02T02:54:37.715Z,12.6
2023-05-02T02:55:38.797Z,12.5
2023-05-02T02:56:39.807Z,12.4
2023-05-02T02:57:40.713Z,12.4
2023-05-02T02:58:41.752Z,12.5
2023-05-02T02:59:42.729Z,12.5
2023-05-02T03:00:43.771Z,12.5
2023-05-02T03:01:44.787Z,12.5
2023-05-02T03:02:45.886Z,12.6
2023-05-02T03:03:46.770Z,12.7
2023-05-02T03:04:47.732Z,12.7
2023-05-02T03:05:48.740Z,12.7
2023-05-02T03:06:49.883Z,12.8
2023-05-02T03:07:50.772Z,12.8
2023-05-02T03:08:51.795Z,12.9
2023-05-02T03:09:52.800Z,12.9
2023-05-02T03:10:53.753Z,12.8
2023-05-02T03:11:54.951Z,12.7
2023-05-02T03:12:56.068Z,12.6
2023-05-02T03:13:56.753Z,12.6
2023-05-02T03:14:57.705Z,12.7
2023-05-02T03:15:58.927Z,12.7
2023-05-02T03:16:59.792Z,12.6
2023-05-02T03:18:00.978Z,12.7
2023-05-02T03:19:01.790Z,12.7
2023-05-02T03:20:02.863Z,12.7
2023-05-02T03:21:03.744Z,12.7
2023-05-02T03:22:04.805Z,12.8
2023-05-02T03:23:05.814Z,12.8
2023-05-02T03:24:06.737Z,12.9
2023-05-02T03:25:07.794Z,13
2023-05-02T03:26:08.754Z,13.1
2023-05-02T03:27:09.840Z,13.2
2023-05-02T03:28:10.772Z,13.3
2023-05-02T03:29:11.793Z,13.3
2023-05-02T03:30:12.752Z,13.4
2023-05-02T03:31:13.784Z,13.4
2023-05-02T03:32:14.819Z,13.5
2023-05-02T03:33:15.861Z,13.6
2023-05-02T03:34:16.762Z,13.6
2023-05-02T03:35:17.752Z,13.6
2023-05-02T03:36:18.819Z,13.6
2023-05-02T03:37:19.797Z,13.6
2023-05-02T03:38:20.773Z,13.5
2023-05-02T03:39:21.839Z,13.4
2023-05-02T03:40:22.803Z,13.4
2023-05-02T03:41:23.774Z,13.4
2023-05-02T03:42:24.786Z,13.5
2023-05-02T03:43:25.783Z,13.4
2023-05-02T03:44:26.853Z,13.4
2023-05-02T03:45:27.817Z,13.4
2023-05-02T03:46:28.756Z,13.5
2023-05-02T03:47:29.798Z,13.6
2023-05-02T03:48:30.773Z,13.6
2023-05-02T03:49:31.773Z,13.7
2023-05-02T03:50:32.815Z,13.8
2023-05-02T03:51:33.757Z,13.8
2023-05-02T03:52:34.757Z,13.8
2023-05-02T03:53:35.773Z,13.8
2023-05-02T03:54:36.794Z,13.9
2023-05-02T03:55:37.793Z,13.8
2023-05-02T03:56:40.193Z,13.8
2023-05-02T03:57:39.829Z,13.9
2023-05-02T03:58:40.808Z,13.9
2023-05-02T03:59:41.823Z,14
2023-05-02T04:00:42.761Z,14
2023-05-02T04:01:43.839Z,14
2023-05-02T04:02:44.982Z,14.1
2023-05-02T04:03:45.846Z,14.1
2023-05-02T04:04:46.991Z,14.1
2023-05-02T04:05:47.796Z,14.1
2023-05-02T04:06:48.861Z,14.1
2023-05-02T04:07:49.821Z,14.1
2023-05-02T04:08:50.776Z,14.1
2023-05-02T04:09:51.794Z,14.1
2023-05-02T04:10:52.756Z,14.1
2023-05-02T04:11:53.859Z,14.2
2023-05-02T04:12:54.858Z,14.1
2023-05-02T04:13:55.826Z,14.1
2023-05-02T04:14:57.102Z,14.1
2023-05-02T04:15:58.835Z,14.1
2023-05-02T04:17:00.044Z,14.1
2023-05-02T04:18:00.865Z,14.1
2023-05-02T04:19:01.821Z,14
2023-05-02T04:20:05.171Z,13.8
2023-05-02T04:21:03.778Z,13.7
2023-05-02T04:22:04.796Z,13.8
2023-05-02T04:23:05.839Z,13.8
2023-05-02T04:24:06.835Z,13.8
2023-05-02T04:25:07.836Z,13.9
2023-05-02T04:26:08.839Z,13.9
2023-05-02T04:27:09.819Z,14
2023-05-02T04:28:11.083Z,14
2023-05-02T04:29:12.857Z,14
2023-05-02T04:30:13.836Z,14
2023-05-02T04:31:15.839Z,13.9
2023-05-02T04:32:16.774Z,14
2023-05-02T04:33:17.833Z,14
2023-05-02T04:34:18.876Z,14
2023-05-02T04:35:20.581Z,13.9
2023-05-02T04:36:21.836Z,13.9
2023-05-02T04:37:23.282Z,14
2023-05-02T04:38:25.097Z,13.9
2023-05-02T04:39:25.812Z,13.9
2023-05-02T04:40:26.819Z,13.9
2023-05-02T04:41:27.813Z,13.9
2023-05-02T04:42:28.794Z,13.9
2023-05-02T04:43:30.171Z,13.9
2023-05-02T04:44:30.894Z,13.8
2023-05-02T04:45:31.853Z,13.8
2023-05-02T04:46:32.866Z,13.7
2023-05-02T04:47:33.921Z,13.5
2023-05-02T04:48:34.973Z,13.4
2023-05-02T04:49:35.745Z,13.3
2023-05-02T04:50:37.274Z,13.3
2023-05-02T04:51:38.931Z,13.2
2023-05-02T04:52:39.789Z,13.1
2023-05-02T04:53:40.872Z,12.9
2023-05-02T04:54:42.859Z,12.9
2023-05-02T04:55:43.818Z,12.9
2023-05-02T04:56:44.790Z,13
2023-05-02T04:57:45.738Z,13
2023-05-02T04:58:46.834Z,13
2023-05-02T04:59:47.880Z,13
2023-05-02T05:00:48.812Z,13.1
2023-05-02T05:01:49.878Z,13.2
2023-05-02T05:02:50.892Z,13.2
2023-05-02T05:03:51.851Z,13.2
2023-05-02T05:04:52.912Z,13.2
2023-05-02T05:05:53.796Z,13.2
2023-05-02T05:06:55.711Z,13.2
2023-05-02T05:07:56.791Z,13.2
2023-05-02T05:08:57.800Z,13.3
2023-05-02T05:09:58.906Z,13.3
2023-05-02T05:10:59.912Z,13.3
2023-05-02T05:12:00.819Z,13.3
2023-05-02T05:13:02.032Z,13.3
2023-05-02T05:14:03.017Z,13.2
2023-05-02T05:15:03.830Z,13.2
2023-05-02T05:16:04.962Z,13.2
2023-05-02T05:17:05.953Z,13.1
2023-05-02T05:18:06.882Z,13.2
2023-05-02T05:19:08.878Z,13.2
2023-05-02T05:20:09.792Z,13.2
2023-05-02T05:21:10.918Z,13.2
2023-05-02T05:22:11.816Z,13.1
2023-05-02T05:23:13.295Z,13.1
2023-05-02T05:24:15.373Z,13.2
2023-05-02T05:25:16.927Z,13.3
2023-05-02T05:26:17.814Z,13.4
2023-05-02T05:27:18.796Z,13.4
2023-05-02T05:28:19.844Z,13.4
2023-05-02T05:29:20.867Z,13.5
2023-05-02T05:30:22.127Z,13.5
2023-05-02T05:31:24.695Z,13.7
2023-05-02T05:32:26.111Z,13.7
2023-05-02T05:33:26.905Z,13.8
2023-05-02T05:34:27.884Z,13.9
2023-05-02T05:35:28.829Z,13.9
2023-05-02T05:36:29.820Z,13.9
2023-05-02T05:37:30.841Z,13.9
2023-05-02T05:38:32.202Z,13.8
2023-05-02T05:39:32.841Z,13.8
2023-05-02T05:40:33.819Z,13.8
2023-05-02T05:41:34.815Z,13.8
2023-05-02T05:42:36.321Z,13.7
2023-05-02T05:43:38.833Z,13.7
2023-05-02T05:44:40.348Z,13.7
2023-05-02T05:45:41.939Z,13.7
2023-05-02T05:46:42.943Z,13.7
2023-05-02T05:47:43.826Z,13.7
2023-05-02T05:48:44.844Z,13.7
2023-05-02T05:49:45.869Z,13.7
2023-05-02T05:50:47.097Z,13.7
2023-05-02T05:51:47.853Z,13.7
2023-05-02T05:52:48.836Z,13.7
2023-05-02T05:53:49.981Z,13.8
2023-05-02T05:54:50.912Z,13.8
2023-05-02T05:55:51.877Z,13.9
2023-05-02T05:56:53.001Z,13.9
2023-05-02T05:57:53.875Z,14
2023-05-02T05:58:54.891Z,14.1
2023-05-02T05:59:56.112Z,14.1
2023-05-02T06:00:57.223Z,14.2
2023-05-02T06:01:57.800Z,14.3
2023-05-02T06:02:59.015Z,14.3
2023-05-02T06:03:59.887Z,14.3
2023-05-02T06:05:00.935Z,14.3
2023-05-02T06:06:01.897Z,14.4
2023-05-02T06:07:02.838Z,14.3
2023-05-02T06:08:03.899Z,14.3
2023-05-02T06:09:04.903Z,14.2
2023-05-02T06:10:05.858Z,14.2
2023-05-02T06:11:06.858Z,14.3
2023-05-02T06:12:07.864Z,14.3
2023-05-02T06:13:08.839Z,14.4
2023-05-02T06:14:09.958Z,14.4
2023-05-02T06:15:10.861Z,14.4
2023-05-02T06:16:11.938Z,14.4
2023-05-02T06:17:17.922Z,14.4
2023-05-02T06:18:18.890Z,14.4
2023-05-02T06:19:20.202Z,14.4
2023-05-02T06:20:22.199Z,14.3
2023-05-02T06:21:23.883Z,14.3
2023-05-02T06:22:24.837Z,14.4
2023-05-02T06:23:25.843Z,14.4
2023-05-02T06:24:27.649Z,14.5
2023-05-02T06:25:28.840Z,14.5
2023-05-02T06:26:29.853Z,14.5
2023-05-02T06:27:32.980Z,14.5
2023-05-02T06:28:32.160Z,14.5
2023-05-02T06:29:33.884Z,14.5
2023-05-02T06:30:34.921Z,14.4
2023-05-02T06:31:35.949Z,14.5
2023-05-02T06:32:37.085Z,14.5
2023-05-02T06:33:37.895Z,14.5
2023-05-02T06:34:39.021Z,14.5
2023-05-02T06:35:39.874Z,14.4
2023-05-02T06:36:40.981Z,14.4
2023-05-02T06:37:41.874Z,14.3
2023-05-02T06:38:42.808Z,14.2
2023-05-02T06:39:43.891Z,14.2
2023-05-02T06:40:44.911Z,14.2
2023-05-02T06:41:45.903Z,14.2
2023-05-02T06:42:46.826Z,14.2
2023-05-02T06:43:47.846Z,14.2
2023-05-02T06:44:48.865Z,14.2
2023-05-02T06:45:49.871Z,14.2
2023-05-02T06:46:50.885Z,14.2
2023-05-02T06:47:51.892Z,14.3
2023-05-02T06:48:52.917Z,14.3
2023-05-02T06:49:54.116Z,14.2
2023-05-02T06:50:54.833Z,14.3
2023-05-02T06:51:55.916Z,14.4
2023-05-02T06:52:56.952Z,14.4
2023-05-02T06:53:57.936Z,14.5
2023-05-02T06:54:58.893Z,14.6
2023-05-02T06:55:59.841Z,14.6
2023-05-02T06:57:01.569Z,14.8
2023-05-02T06:58:02.917Z,14.9
2023-05-02T06:59:03.897Z,15
2023-05-02T07:00:05.279Z,15.1
2023-05-02T07:01:05.894Z,15.1
2023-05-02T07:02:07.175Z,15.2
2023-05-02T07:03:08.028Z,15.2
2023-05-02T07:04:09.002Z,15.2
2023-05-02T07:05:09.965Z,15.2
2023-05-02T07:06:11.200Z,15.2
2023-05-02T07:07:12.866Z,15.1
2023-05-02T07:08:13.880Z,15.1
2023-05-02T07:09:14.883Z,15.2
2023-05-02T07:10:16.175Z,15.1
2023-05-02T07:11:17.863Z,15.1
2023-05-02T07:12:18.988Z,15.2
2023-05-02T07:13:19.879Z,15.2
2023-05-02T07:14:20.890Z,15.2
2023-05-02T07:15:22.001Z,15.2
2023-05-02T07:16:23.011Z,15.4
2023-05-02T07:17:23.955Z,15.5
2023-05-02T07:18:24.912Z,15.6
2023-05-02T07:19:25.881Z,15.7
2023-05-02T07:20:26.895Z,15.7
2023-05-02T07:21:27.923Z,15.8
2023-05-02T07:22:28.919Z,15.9
2023-05-02T07:23:29.923Z,15.9
2023-05-02T07:24:31.135Z,15.9
2023-05-02T07:25:31.862Z,15.9
2023-05-02T07:26:32.854Z,15.9
2023-05-02T07:27:33.933Z,15.9
2023-05-02T07:28:34.979Z,15.8
2023-05-02T07:29:35.972Z,15.7
2023-05-02T07:30:36.904Z,15.7
2023-05-02T07:31:38.746Z,15.8
2023-05-02T07:32:39.937Z,15.8
2023-05-02T07:33:40.914Z,15.8
2023-05-02T07:34:42.050Z,15.9
2023-05-02T07:35:42.857Z,15.9
2023-05-02T07:36:44.334Z,16
2023-05-02T07:37:45.910Z,16
2023-05-02T07:38:46.954Z,16.1
2023-05-02T07:39:47.865Z,16.1
2023-05-02T07:40:48.915Z,16.1
2023-05-02T07:41:49.888Z,16.2
2023-05-02T07:42:50.980Z,16.2
2023-05-02T07:43:51.934Z,16.3
2023-05-02T07:44:53.149Z,16.4
2023-05-02T07:45:53.931Z,16.4
2023-05-02T07:46:54.907Z,16.4
2023-05-02T07:47:55.962Z,16.3
2023-05-02T07:48:57.291Z,16.3
2023-05-02T07:49:59.205Z,16.2
2023-05-02T07:51:00.318Z,16.2
2023-05-02T07:52:02.899Z,16.1
2023-05-02T07:53:04.501Z,16
2023-05-02T07:54:05.921Z,15.9
2023-05-02T07:55:06.914Z,15.9
2023-05-02T07:56:08.968Z,15.9
2023-05-02T07:57:09.902Z,15.9
2023-05-02T07:58:10.882Z,15.9
2023-05-02T07:59:12.254Z,15.9
2023-05-02T08:00:14.180Z,16
2023-05-02T08:01:14.916Z,16
2023-05-02T08:02:16.019Z,16
2023-05-02T08:03:16.981Z,16
2023-05-02T08:04:18.046Z,16.1
2023-05-02T08:05:19.131Z,16
2023-05-02T08:06:20.027Z,16.1
2023-05-02T08:07:20.897Z,16.2
2023-05-02T08:08:24.492Z,16.2
2023-05-02T08:09:25.901Z,16.2
2023-05-02T08:10:26.910Z,16.3
2023-05-02T08:11:27.956Z,16.4
2023-05-02T08:12:28.916Z,16.5
2023-05-02T08:13:29.924Z,16.6
2023-05-02T08:14:30.946Z,16.7
2023-05-02T08:15:31.976Z,16.8
2023-05-02T08:16:33.786Z,16.8
2023-05-02T08:17:35.030Z,16.8
2023-05-02T08:18:35.927Z,16.9
2023-05-02T08:19:36.918Z,16.9
2023-05-02T08:20:37.958Z,16.8
2023-05-02T08:21:38.921Z,16.8
2023-05-02T08:22:40.029Z,16.7
2023-05-02T08:23:40.973Z,16.7
2023-05-02T08:24:41.970Z,16.7
2023-05-02T08:25:43.028Z,16.8
2023-05-02T08:26:43.904Z,16.8
2023-05-02T08:27:44.978Z,16.9
2023-05-02T08:28:45.927Z,16.9
2023-05-02T08:29:46.900Z,17
2023-05-02T08:30:47.907Z,17
2023-05-02T08:31:49.019Z,17.1
2023-05-02T08:32:50.074Z,17.1
2023-05-02T08:33:50.945Z,17.1
2023-05-02T08:34:51.969Z,17.2
2023-05-02T08:35:52.914Z,17.2
2023-05-02T08:36:56.201Z,17.2
2023-05-02T08:37:55.941Z,17.3
2023-05-02T08:38:56.984Z,17.3
2023-05-02T08:39:58.022Z,17.2
2023-05-02T08:40:58.975Z,17.1
2023-05-02T08:41:59.901Z,17.2
2023-05-02T08:43:00.949Z,17.2
2023-05-02T08:44:01.960Z,17.3
2023-05-02T08:45:03.339Z,17.3
2023-05-02T08:46:04.939Z,17.3
2023-05-02T08:47:06.361Z,17.3
2023-05-02T08:48:07.985Z,17.2
2023-05-02T08:49:08.938Z,17.2
2023-05-02T08:50:12.770Z,17.2
2023-05-02T08:51:14.074Z,17.1
2023-05-02T08:52:15.224Z,17.1
2023-05-02T08:53:15.942Z,17.1
2023-05-02T08:54:17.030Z,17.2
2023-05-02T08:55:18.201Z,17.2
2023-05-02T08:56:20.603Z,17.2
2023-05-02T08:57:22.312Z,17.2
2023-05-02T08:58:23.961Z,17.1
2023-05-02T08:59:25.032Z,17
2023-05-02T09:00:26.334Z,16.9
2023-05-02T09:01:28.016Z,16.8
2023-05-02T09:02:29.162Z,16.9
2023-05-02T09:03:30.002Z,17
2023-05-02T09:04:31.000Z,17.1
2023-05-02T09:05:31.918Z,17.1
2023-05-02T09:06:33.029Z,17.1
2023-05-02T09:07:33.985Z,17
2023-05-02T09:08:34.918Z,16.9
2023-05-02T09:09:36.117Z,16.9
2023-05-02T09:10:36.895Z,16.8
2023-05-02T09:11:37.946Z,16.7
2023-05-02T09:12:38.924Z,16.6
2023-05-02T09:13:39.941Z,16.6
2023-05-02T09:14:40.972Z,16.6
2023-05-02T09:15:41.969Z,16.7
2023-05-02T09:16:43.014Z,16.8
2023-05-02T09:17:44.189Z,16.9
2023-05-02T09:18:44.964Z,17.1
2023-05-02T09:19:45.941Z,17.2
2023-05-02T09:20:46.954Z,17.3
2023-05-02T09:21:48.154Z,17.5
2023-05-02T09:22:48.929Z,17.6
2023-05-02T09:23:49.935Z,17.5
2023-05-02T09:24:50.904Z,17.5
2023-05-02T09:25:51.949Z,17.5
2023-05-02T09:26:52.921Z,17.5
2023-05-02T09:27:54.110Z,17.5
2023-05-02T09:28:55.022Z,17.4
2023-05-02T09:29:55.945Z,17.4
2023-05-02T09:30:57.261Z,17.4
2023-05-02T09:31:58.007Z,17.4
2023-05-02T09:32:59.174Z,17.3
2023-05-02T09:33:59.995Z,17.3
2023-05-02T09:35:01.204Z,17.3
2023-05-02T09:36:02.079Z,17.3
2023-05-02T09:37:02.961Z,17.4
2023-05-02T09:38:03.967Z,17.4
2023-05-02T09:39:05.564Z,17.3
2023-05-02T09:40:06.997Z,17.2
2023-05-02T09:41:08.003Z,17.1
2023-05-02T09:42:08.985Z,17.1
2023-05-02T09:43:10.004Z,17
2023-05-02T09:44:10.975Z,16.8
2023-05-02T09:45:11.998Z,16.8
2023-05-02T09:46:12.985Z,16.9
2023-05-02T09:47:14.017Z,16.8
2023-05-02T09:48:14.973Z,16.9
2023-05-02T09:49:16.019Z,16.8
2023-05-02T09:50:17.040Z,16.8
2023-05-02T09:51:17.961Z,16.8
2023-05-02T09:52:18.995Z,16.8
2023-05-02T09:53:20.076Z,16.7
2023-05-02T09:54:20.960Z,16.8
2023-05-02T09:55:21.996Z,16.9
2023-05-02T09:56:24.038Z,16.9
2023-05-02T09:57:24.978Z,17.1
2023-05-02T09:58:25.999Z,17.2
2023-05-02T09:59:26.974Z,17.3
2023-05-02T10:00:27.980Z,17.4
2023-05-02T10:01:28.991Z,17.5
2023-05-02T10:02:30.596Z,17.4
2023-05-02T10:03:32.020Z,17.2
2023-05-02T10:04:33.522Z,17.1
2023-05-02T10:05:34.996Z,17
2023-05-02T10:06:36.477Z,16.9
2023-05-02T10:07:38.030Z,16.8
2023-05-02T10:08:38.970Z,16.7
2023-05-02T10:09:40.015Z,16.6
2023-05-02T10:10:41.740Z,16.6
2023-05-02T10:11:42.993Z,16.7
2023-05-02T10:12:43.970Z,16.7
2023-05-02T10:13:44.973Z,16.7
2023-05-02T10:14:45.960Z,16.9
2023-05-02T10:15:47.004Z,17
2023-05-02T10:16:47.963Z,17
2023-05-02T10:17:49.047Z,17.1
2023-05-02T10:18:49.960Z,17.2
2023-05-02T10:19:50.978Z,17.3
2023-05-02T10:20:51.978Z,17.5
2023-05-02T10:21:53.037Z,17.7
2023-05-02T10:22:54.014Z,17.8
2023-05-02T10:23:55.014Z,17.8
2023-05-02T10:24:55.972Z,17.9
2023-05-02T10:25:58.159Z,17.9
2023-05-02T10:26:57.997Z,17.9
2023-05-02T10:27:59.137Z,17.8
2023-05-02T10:29:00.016Z,17.7
2023-05-02T10:30:01.027Z,17.7
2023-05-02T10:31:02.051Z,17.7
2023-05-02T10:32:03.692Z,17.7
2023-05-02T10:33:05.426Z,17.7
2023-05-02T10:34:07.056Z,17.7
2023-05-02T10:35:08.038Z,17.7
2023-05-02T10:36:09.020Z,17.7
2023-05-02T10:37:10.099Z,17.7
2023-05-02T10:38:11.087Z,17.7
2023-05-02T10:39:12.024Z,17.7
2023-05-02T10:40:13.050Z,17.5
2023-05-02T10:41:13.970Z,17.3
2023-05-02T10:42:15.422Z,17.3
2023-05-02T10:43:17.062Z,17.3
2023-05-02T10:44:17.997Z,17.4
2023-05-02T10:45:19.091Z,17.4
2023-05-02T10:46:21.248Z,17.5
2023-05-02T10:47:23.064Z,17.6
2023-05-02T10:48:25.090Z,17.9
2023-05-02T10:49:26.035Z,18
2023-05-02T10:50:27.710Z,18.1
2023-05-02T10:51:28.348Z,18.2
2023-05-02T10:52:30.175Z,18.2
2023-05-02T10:53:31.398Z,18.3
2023-05-02T10:54:33.025Z,18.4
2023-05-02T10:55:34.213Z,18.5
2023-05-02T10:56:36.193Z,18.5
2023-05-02T10:57:37.089Z,18.5
2023-05-02T10:58:38.017Z,18.4
2023-05-02T10:59:39.028Z,18.4
2023-05-02T11:00:40.049Z,18.4
2023-05-02T11:01:41.077Z,18.5
2023-05-02T11:02:43.543Z,18.4
2023-05-02T11:03:45.138Z,18.4
2023-05-02T11:04:46.601Z,18.4
2023-05-02T11:05:49.234Z,18.3
2023-05-02T11:06:51.335Z,18.3
2023-05-02T11:07:53.398Z,18.2
2023-05-02T11:08:54.985Z,18.3
2023-05-02T11:09:56.380Z,18.4
2023-05-02T11:10:58.010Z,18.5
2023-05-02T11:11:59.109Z,18.7
2023-05-02T11:13:00.153Z,18.8
2023-05-02T11:14:01.017Z,19
2023-05-02T11:15:02.382Z,19.2
2023-05-02T11:16:03.117Z,19.3
2023-05-02T11:17:04.617Z,19.4
2023-05-02T11:18:06.177Z,19.4
2023-05-02T11:19:08.033Z,19.3
2023-05-02T11:20:09.299Z,19.3
2023-05-02T11:21:11.131Z,19.2
2023-05-02T11:22:12.036Z,19.1
2023-05-02T11:23:13.002Z,19
2023-05-02T11:24:14.038Z,19
2023-05-02T11:25:16.195Z,19
2023-05-02T11:26:18.055Z,19
2023-05-02T11:27:19.043Z,19.1
2023-05-02T11:28:20.103Z,19
2023-05-02T11:29:21.054Z,18.9
2023-05-02T11:30:22.078Z,18.9
2023-05-02T11:31:23.070Z,18.9
2023-05-02T11:32:24.474Z,18.9
2023-05-02T11:33:26.081Z,19
2023-05-02T11:34:27.393Z,19
2023-05-02T11:35:29.652Z,19.1
2023-05-02T11:36:31.063Z,19.2
2023-05-02T11:37:32.096Z,19.3
2023-05-02T11:38:33.136Z,19.3
2023-05-02T11:39:34.053Z,19.3
2023-05-02T11:40:35.108Z,19.3
2023-05-02T11:41:36.227Z,19.4
2023-05-02T11:42:37.296Z,19.5
2023-05-02T11:43:42.134Z,19.3
2023-05-02T11:44:43.134Z,19.3
2023-05-02T11:45:44.113Z,19.3
2023-05-02T11:46:45.129Z,19.3
2023-05-02T11:47:46.589Z,19.5
2023-05-02T11:48:48.092Z,19.6
2023-05-02T11:49:49.075Z,19.6
2023-05-02T11:50:50.736Z,19.6
2023-05-02T11:51:51.101Z,19.5
2023-05-02T11:52:52.154Z,19.3
2023-05-02T11:53:53.061Z,19.1
2023-05-02T11:54:54.371Z,19.1
2023-05-02T11:55:55.154Z,19.1
2023-05-02T11:56:56.035Z,19.2
2023-05-02T11:57:57.115Z,19.2
2023-05-02T11:58:58.077Z,19.2
2023-05-02T11:59:59.055Z,19.2
2023-05-02T12:01:00.079Z,19.2
2023-05-02T12:02:01.065Z,19.1
2023-05-02T12:03:02.214Z,19
2023-05-02T12:04:03.294Z,19
2023-05-02T12:05:04.422Z,19
2023-05-02T12:06:05.417Z,19
2023-05-02T12:07:07.674Z,19
2023-05-02T12:08:08.209Z,19
2023-05-02T12:09:10.474Z,18.9
2023-05-02T12:10:12.088Z,19
2023-05-02T12:11:13.999Z,19
2023-05-02T12:12:16.097Z,19
2023-05-02T12:13:17.077Z,19.1
2023-05-02T12:14:18.093Z,19.1
2023-05-02T12:15:19.198Z,19.3
2023-05-02T12:16:20.421Z,19.3
2023-05-02T12:17:22.316Z,19.3
2023-05-02T12:18:24.117Z,19.2
2023-05-02T12:19:26.695Z,19.3
2023-05-02T12:20:29.119Z,19.3
2023-05-02T12:21:30.173Z,19.3
2023-05-02T12:22:31.105Z,19.3
2023-05-02T12:23:32.064Z,19.4
2023-05-02T12:24:33.138Z,19.4
2023-05-02T12:25:34.195Z,19.5
2023-05-02T12:26:35.125Z,19.4
2023-05-02T12:27:36.325Z,19.2
2023-05-02T12:28:37.123Z,19
2023-05-02T12:29:38.436Z,19
2023-05-02T12:30:40.120Z,18.9
2023-05-02T12:31:41.154Z,18.7
2023-05-02T12:32:42.175Z,18.5
2023-05-02T12:33:43.071Z,18.4
2023-05-02T12:34:44.991Z,18.3
2023-05-02T12:35:47.189Z,18.2
2023-05-02T12:36:49.104Z,17.9
2023-05-02T12:37:50.768Z,17.6
2023-05-02T12:38:52.082Z,17.3
2023-05-02T12:39:53.562Z,17.2
2023-05-02T12:40:55.096Z,17.1
2023-05-02T12:41:56.142Z,16.9
2023-05-02T12:42:57.118Z,16.6
2023-05-02T12:43:58.075Z,16.4
2023-05-02T12:44:59.096Z,16.3
2023-05-02T12:46:00.127Z,16.2
2023-05-02T12:47:02.213Z,16.2
2023-05-02T12:48:03.419Z,16.2
2023-05-02T12:49:06.211Z,16.2
2023-05-02T12:50:09.655Z,16.2
2023-05-02T12:51:11.356Z,16.1
2023-05-02T12:52:12.139Z,16
2023-05-02T12:53:13.860Z,16
2023-05-02T12:54:15.094Z,16
2023-05-02T12:55:16.096Z,16
2023-05-02T12:56:17.098Z,15.9
2023-05-02T12:57:18.155Z,15.9
2023-05-02T12:58:19.242Z,15.9
2023-05-02T12:59:20.096Z,15.9
2023-05-02T13:00:21.094Z,15.9
2023-05-02T13:01:22.145Z,15.9
2023-05-02T13:02:23.089Z,16
2023-05-02T13:03:24.191Z,16
2023-05-02T13:04:25.144Z,16
2023-05-02T13:05:26.204Z,16
2023-05-02T13:06:27.498Z,16.1
2023-05-02T13:07:29.203Z,16.1
2023-05-02T13:08:30.158Z,16.1
2023-05-02T13:09:31.141Z,16.1
2023-05-02T13:10:32.045Z,16.1
2023-05-02T13:11:34.158Z,15.9
2023-05-02T13:12:35.081Z,15.9
2023-05-02T13:13:36.389Z,16.1
2023-05-02T13:14:38.130Z,16.1
2023-05-02T13:15:39.113Z,16.1
2023-05-02T13:16:40.337Z,16.1
2023-05-02T13:17:41.190Z,16
2023-05-02T13:18:42.128Z,16
2023-05-02T13:19:47.642Z,16.1
2023-05-02T13:20:45.114Z,16.1
2023-05-02T13:21:46.355Z,16.2
2023-05-02T13:22:47.248Z,16.3
2023-05-02T13:23:50.310Z,16.4
2023-05-02T13:24:53.413Z,16.3
2023-05-02T13:25:55.216Z,16.3
2023-05-02T13:26:56.354Z,16.4
2023-05-02T13:27:58.132Z,16.4
2023-05-02T13:29:00.137Z,16.4
2023-05-02T13:30:01.392Z,16.5
2023-05-02T13:31:02.265Z,16.3
2023-05-02T13:32:03.445Z,16.3
2023-05-02T13:33:05.153Z,16.3
2023-05-02T13:34:06.120Z,16.2
2023-05-02T13:35:07.151Z,16.3
2023-05-02T13:36:08.155Z,16.5
2023-05-02T13:37:09.133Z,16.6
2023-05-02T13:38:10.543Z,16.6
2023-05-02T13:39:12.166Z,16.6